Time;durP1;ratioP1;P1;durP2;ratioP2;P2;SDS_P1;SDS_P2;PMS_P1;PMS_P2;Temp;Humidity;BMP_temperature;BMP_pressure;BME280_temperature;BME280_humidity;BME280_pressure;Samples;Min_cycle;Max_cycle;Signal;HPM_P1;HPM_P2
2021/10/07 00:00:34;;;;;;;1.60;1.50;;;12.10;99.90;;;;;;5032669;28;20224;-70
2021/10/07 00:03:00;;;;;;;1.50;1.40;;;12.10;99.90;;;;;;5015156;28;20789;-70
2021/10/07 00:05:25;;;;;;;2.13;1.93;;;12.10;99.90;;;;;;5023468;28;20456;-70
2021/10/07 00:07:51;;;;;;;2.10;1.90;;;12.10;99.90;;;;;;5051726;28;20286;-70
2021/10/07 00:10:17;;;;;;;1.70;1.60;;;12.00;99.90;;;;;;5068306;28;20249;-69
2021/10/07 00:12:42;;;;;;;1.93;1.83;;;12.00;99.90;;;;;;5032143;28;20212;-69
2021/10/07 00:15:09;;;;;;;1.50;1.40;;;12.00;99.90;;;;;;5051601;28;20211;-69
2021/10/07 00:17:35;;;;;;;1.70;1.60;;;12.00;99.90;;;;;;5035572;28;20215;-70
2021/10/07 00:20:03;;;;;;;1.63;1.53;;;12.00;99.90;;;;;;5036155;28;20476;-70
2021/10/07 00:22:29;;;;;;;2.20;1.43;;;12.00;99.90;;;;;;5062471;28;20446;-70
2021/10/07 00:24:55;;;;;;;1.57;1.47;;;12.00;99.90;;;;;;5044224;28;20877;-70
2021/10/07 00:27:20;;;;;;;1.30;1.20;;;12.00;99.90;;;;;;5030540;28;20302;-69
2021/10/07 00:29:47;;;;;;;1.60;1.20;;;12.00;99.90;;;;;;5037932;28;20299;-70
2021/10/07 00:32:20;;;;;;;1.40;1.30;;;12.00;99.90;;;;;;5027042;28;20234;-70
2021/10/07 00:40:04;;;;;;;1.33;1.23;;;12.10;99.90;;;;;;5052843;28;20524;-70
2021/10/07 00:42:29;;;;;;;1.23;1.13;;;12.00;99.90;;;;;;5050299;28;20507;-69
2021/10/07 00:44:55;;;;;;;3.87;1.50;;;12.00;99.90;;;;;;5051499;28;20992;-70
2021/10/07 00:47:21;;;;;;;4.53;1.73;;;12.00;99.90;;;;;;5041171;28;20273;-70
2021/10/07 00:49:47;;;;;;;2.57;1.53;;;12.00;99.90;;;;;;5015421;28;20215;-70
2021/10/07 00:52:17;;;;;;;1.60;1.50;;;12.00;99.90;;;;;;5031293;28;20238;-70
2021/10/07 00:54:46;;;;;;;1.50;1.40;;;12.00;99.90;;;;;;5039967;28;20469;-70
2021/10/07 00:57:19;;;;;;;1.60;1.50;;;12.00;99.90;;;;;;5051502;28;20465;-70
2021/10/07 00:59:46;;;;;;;2.40;1.60;;;12.00;99.90;;;;;;5048077;28;20537;-70
2021/10/07 01:02:12;;;;;;;1.67;1.57;;;11.90;99.90;;;;;;5042664;28;20475;-70
2021/10/07 01:04:38;;;;;;;2.63;2.00;;;11.90;99.90;;;;;;5034867;28;20484;-70
2021/10/07 01:07:06;;;;;;;2.57;2.10;;;11.90;99.90;;;;;;5051279;28;20841;-69
2021/10/07 01:09:32;;;;;;;3.83;1.80;;;11.90;99.90;;;;;;5026880;28;20718;-69
2021/10/07 01:12:00;;;;;;;1.93;1.80;;;11.90;99.90;;;;;;5033646;28;20549;-70
2021/10/07 01:14:47;;;;;;;2.60;2.10;;;11.90;99.90;;;;;;5051733;28;20485;-69
2021/10/07 01:17:15;;;;;;;1.70;1.60;;;11.90;99.90;;;;;;5034094;28;20489;-70
2021/10/07 01:19:52;;;;;;;2.70;1.87;;;12.00;99.90;;;;;;5021580;28;20450;-70
2021/10/07 01:22:20;;;;;;;1.90;1.70;;;12.00;99.90;;;;;;5020691;28;20488;-69
2021/10/07 01:24:46;;;;;;;2.33;1.60;;;12.00;99.90;;;;;;5038147;28;20488;-70
2021/10/07 01:27:12;;;;;;;3.37;2.30;;;12.00;99.90;;;;;;5037437;28;20540;-69
2021/10/07 01:29:39;;;;;;;2.30;2.00;;;12.00;99.90;;;;;;5038549;28;20874;-70
2021/10/07 01:32:06;;;;;;;2.53;1.87;;;12.00;99.90;;;;;;5038401;28;20261;-70
2021/10/07 01:34:33;;;;;;;1.70;1.50;;;12.00;99.90;;;;;;5071913;28;20499;-70
2021/10/07 01:36:59;;;;;;;3.07;1.60;;;12.00;99.90;;;;;;5038493;28;20460;-70
2021/10/07 01:39:25;;;;;;;1.90;1.80;;;12.00;99.90;;;;;;5038945;28;20452;-70
2021/10/07 01:41:52;;;;;;;1.60;1.50;;;12.00;99.90;;;;;;5053174;28;20461;-70
2021/10/07 01:44:22;;;;;;;1.87;1.77;;;12.00;99.90;;;;;;5036786;28;20461;-69
2021/10/07 01:46:48;;;;;;;1.87;1.57;;;12.00;99.90;;;;;;5055054;28;20483;-70
2021/10/07 01:49:14;;;;;;;1.57;1.47;;;12.00;99.90;;;;;;5038025;28;20453;-70
2021/10/07 01:51:40;;;;;;;4.00;2.07;;;12.00;99.90;;;;;;5053352;28;20310;-69
2021/10/07 01:54:06;;;;;;;4.63;2.00;;;12.00;99.90;;;;;;5038610;28;20535;-70
2021/10/07 01:56:34;;;;;;;1.93;1.80;;;12.00;99.90;;;;;;5047779;28;20468;-70
2021/10/07 01:59:00;;;;;;;2.10;1.80;;;12.00;99.90;;;;;;5054831;28;20465;-70
2021/10/07 02:01:26;;;;;;;1.67;1.57;;;12.00;99.90;;;;;;5037321;28;20552;-70
2021/10/07 02:03:52;;;;;;;2.00;1.80;;;12.10;99.90;;;;;;5029755;28;20442;-70
2021/10/07 02:06:18;;;;;;;4.33;1.90;;;12.10;99.90;;;;;;5034794;28;20458;-70
2021/10/07 02:08:43;;;;;;;3.40;1.80;;;12.10;99.90;;;;;;5052490;28;20369;-70
2021/10/07 02:11:10;;;;;;;3.90;1.80;;;12.10;99.90;;;;;;5018517;28;20496;-69
2021/10/07 02:13:35;;;;;;;3.10;2.00;;;12.10;99.90;;;;;;5026861;28;20220;-70
2021/10/07 02:16:01;;;;;;;5.10;2.17;;;12.00;99.90;;;;;;5067777;28;20826;-70
2021/10/07 02:18:27;;;;;;;2.37;1.70;;;12.10;99.90;;;;;;5038126;28;20722;-70
2021/10/07 02:20:53;;;;;;;1.80;1.70;;;12.00;99.90;;;;;;5053577;28;20475;-70
2021/10/07 02:23:19;;;;;;;2.33;2.13;;;12.10;99.90;;;;;;5043203;28;20219;-70
2021/10/07 02:25:45;;;;;;;3.20;2.30;;;12.00;99.90;;;;;;5034461;28;20451;-70
2021/10/07 02:28:10;;;;;;;2.10;2.00;;;12.00;99.90;;;;;;5017773;28;20251;-70
2021/10/07 02:30:36;;;;;;;1.60;1.50;;;12.00;99.90;;;;;;5037864;28;20220;-70
2021/10/07 02:33:02;;;;;;;2.60;2.40;;;12.00;99.90;;;;;;5033178;28;20218;-70
2021/10/07 02:35:28;;;;;;;4.73;2.37;;;12.00;99.90;;;;;;5053065;28;20754;-71
2021/10/07 02:37:54;;;;;;;2.70;1.73;;;12.00;99.90;;;;;;5022424;28;20208;-70
2021/10/07 02:40:20;;;;;;;3.23;1.97;;;12.00;99.90;;;;;;5017886;28;20303;-70
2021/10/07 02:42:46;;;;;;;4.73;2.40;;;12.10;99.90;;;;;;5016697;28;20454;-70
2021/10/07 02:45:15;;;;;;;3.43;2.17;;;12.10;99.90;;;;;;5034123;28;20541;-70
2021/10/07 02:47:41;;;;;;;2.97;2.33;;;12.10;99.90;;;;;;5028707;28;20973;-70
2021/10/07 02:50:09;;;;;;;3.97;2.80;;;12.10;99.90;;;;;;5068605;28;20452;-70
2021/10/07 02:52:35;;;;;;;2.37;2.17;;;12.10;99.90;;;;;;5030989;28;20462;-70
2021/10/07 02:55:01;;;;;;;1.90;1.80;;;12.10;99.90;;;;;;5033931;28;20817;-70
2021/10/07 02:57:27;;;;;;;2.43;2.23;;;12.10;99.90;;;;;;5037204;28;20515;-70
2021/10/07 02:59:52;;;;;;;2.20;2.00;;;12.10;99.90;;;;;;5036357;28;20214;-70
2021/10/07 03:02:18;;;;;;;4.60;2.23;;;12.10;99.90;;;;;;5061940;28;20243;-69
2021/10/07 03:04:44;;;;;;;2.50;2.07;;;12.10;99.90;;;;;;5037045;28;20219;-70
2021/10/07 03:07:14;;;;;;;2.30;1.70;;;12.10;99.90;;;;;;5053942;28;20223;-69
2021/10/07 03:09:40;;;;;;;3.13;2.43;;;12.10;99.90;;;;;;5035406;28;20218;-70
2021/10/07 03:12:06;;;;;;;2.23;2.03;;;12.10;99.90;;;;;;5061795;28;20462;-70
2021/10/07 03:14:34;;;;;;;2.30;2.00;;;12.10;99.90;;;;;;5039517;28;20221;-70
2021/10/07 03:17:00;;;;;;;3.20;2.77;;;12.10;99.90;;;;;;5063566;28;20465;-70
2021/10/07 03:19:27;;;;;;;3.67;2.60;;;12.10;99.90;;;;;;5033626;28;20534;-70
2021/10/07 03:21:53;;;;;;;2.70;2.30;;;12.10;99.90;;;;;;5019027;28;20529;-70
2021/10/07 03:24:19;;;;;;;2.47;2.27;;;12.10;99.90;;;;;;5036797;28;20365;-69
2021/10/07 03:26:44;;;;;;;2.30;2.10;;;12.10;99.90;;;;;;5069848;28;20673;-71
2021/10/07 03:29:10;;;;;;;2.00;1.73;;;12.10;99.90;;;;;;5036120;28;20234;-69
2021/10/07 03:31:36;;;;;;;2.40;2.20;;;12.10;99.90;;;;;;5049838;28;20314;-70
2021/10/07 03:34:01;;;;;;;5.63;2.10;;;12.10;99.90;;;;;;5020592;28;20222;-70
2021/10/07 03:36:27;;;;;;;3.27;2.30;;;12.10;99.90;;;;;;5044230;28;20223;-70
2021/10/07 03:38:53;;;;;;;3.67;2.20;;;12.10;99.90;;;;;;5036400;28;20702;-70
2021/10/07 03:41:18;;;;;;;3.17;2.43;;;12.10;99.90;;;;;;5036547;28;20218;-70
2021/10/07 03:43:44;;;;;;;3.33;2.30;;;12.10;99.90;;;;;;5062612;28;20253;-70
2021/10/07 03:46:10;;;;;;;4.60;2.50;;;12.10;99.90;;;;;;5035102;28;20292;-71
2021/10/07 03:48:36;;;;;;;2.47;2.27;;;12.10;99.90;;;;;;5052770;28;20251;-70
2021/10/07 03:51:02;;;;;;;2.17;2.07;;;12.10;99.90;;;;;;5069707;28;20235;-70
2021/10/07 03:53:28;;;;;;;2.50;2.03;;;12.10;99.90;;;;;;5047611;28;20227;-70
2021/10/07 03:55:55;;;;;;;2.40;2.00;;;12.10;99.90;;;;;;5042502;28;20533;-70
2021/10/07 03:58:20;;;;;;;2.43;2.20;;;12.10;99.90;;;;;;5051010;28;20314;-70
2021/10/07 04:00:46;;;;;;;3.03;2.73;;;12.10;99.90;;;;;;5034363;28;20533;-70
2021/10/07 04:03:12;;;;;;;2.77;2.57;;;12.10;99.90;;;;;;5048256;28;20230;-70
2021/10/07 04:05:37;;;;;;;2.30;2.10;;;12.10;99.90;;;;;;5050126;28;20228;-70
2021/10/07 04:08:04;;;;;;;2.60;2.00;;;12.10;99.90;;;;;;5032891;28;20219;-70
2021/10/07 04:10:31;;;;;;;3.27;2.27;;;12.10;99.90;;;;;;5043585;28;20294;-69
2021/10/07 04:12:57;;;;;;;2.57;2.37;;;12.10;99.90;;;;;;5030709;28;20465;-71
2021/10/07 04:15:22;;;;;;;5.07;2.50;;;12.10;99.90;;;;;;5052364;28;20479;-70
2021/10/07 04:17:48;;;;;;;1.97;1.87;;;12.10;99.90;;;;;;5051599;28;20215;-70
2021/10/07 04:20:14;;;;;;;3.10;1.97;;;12.10;99.90;;;;;;5051926;28;20453;-68
2021/10/07 04:22:40;;;;;;;2.37;2.17;;;12.10;99.90;;;;;;5051114;28;20219;-70
2021/10/07 04:25:06;;;;;;;5.33;3.00;;;12.10;99.90;;;;;;5052469;28;20215;-70
2021/10/07 04:27:32;;;;;;;6.73;2.73;;;12.10;99.90;;;;;;5059044;28;20995;-70
2021/10/07 04:30:05;;;;;;;6.10;2.37;;;12.10;99.90;;;;;;5043124;28;20441;-70
2021/10/07 04:32:31;;;;;;;2.93;2.30;;;12.10;99.90;;;;;;5033364;28;20691;-70
2021/10/07 04:34:57;;;;;;;3.13;2.80;;;12.10;99.90;;;;;;5044942;28;20442;-70
2021/10/07 04:37:23;;;;;;;2.70;2.50;;;12.10;99.90;;;;;;5050064;28;20307;-70
2021/10/07 04:39:49;;;;;;;3.20;2.90;;;12.10;99.90;;;;;;5034341;28;20211;-70
2021/10/07 04:42:14;;;;;;;2.43;2.23;;;12.10;99.90;;;;;;5049512;28;20226;-70
2021/10/07 04:44:40;;;;;;;5.70;2.30;;;12.10;99.90;;;;;;5031532;28;20228;-70
2021/10/07 04:47:06;;;;;;;3.00;2.53;;;12.10;99.90;;;;;;5032511;28;20541;-70
2021/10/07 04:49:32;;;;;;;3.13;2.83;;;12.10;99.90;;;;;;5015563;28;20227;-70
2021/10/07 04:51:57;;;;;;;2.40;2.20;;;12.10;99.90;;;;;;5043304;28;20227;-70
2021/10/07 04:54:23;;;;;;;2.80;2.60;;;12.20;99.90;;;;;;5038410;28;20709;-70
2021/10/07 04:56:49;;;;;;;2.60;2.40;;;12.10;99.90;;;;;;5034491;28;20261;-70
2021/10/07 04:59:14;;;;;;;2.50;2.30;;;12.10;99.90;;;;;;5039660;28;20272;-69
2021/10/07 05:01:40;;;;;;;3.83;2.73;;;12.10;99.90;;;;;;5037947;28;20219;-70
2021/10/07 05:04:06;;;;;;;2.73;2.50;;;12.10;99.90;;;;;;5055580;28;20219;-70
2021/10/07 05:06:31;;;;;;;2.50;2.30;;;12.10;99.90;;;;;;5040978;28;20242;-71
2021/10/07 05:08:57;;;;;;;3.33;2.73;;;12.20;99.90;;;;;;5041957;28;20229;-69
2021/10/07 05:11:23;;;;;;;2.83;2.53;;;12.20;99.90;;;;;;5056985;28;20238;-70
2021/10/07 05:13:49;;;;;;;2.97;2.47;;;12.10;99.90;;;;;;5040194;28;20214;-70
2021/10/07 05:16:14;;;;;;;2.97;2.67;;;12.10;99.90;;;;;;5042052;28;20855;-71
2021/10/07 05:18:40;;;;;;;3.30;3.00;;;12.10;99.90;;;;;;5053995;28;20578;-71
2021/10/07 05:21:06;;;;;;;4.70;3.53;;;12.20;99.90;;;;;;5066627;28;20226;-71
2021/10/07 05:23:33;;;;;;;6.83;3.20;;;12.20;99.90;;;;;;5056968;28;20230;-71
2021/10/07 05:26:00;;;;;;;4.30;3.70;;;12.10;99.90;;;;;;5040068;28;20223;-72
2021/10/07 05:28:26;;;;;;;3.70;3.40;;;12.10;99.90;;;;;;5056629;28;20524;-72
2021/10/07 05:30:51;;;;;;;5.53;3.50;;;12.10;99.90;;;;;;5060686;28;20968;-71
2021/10/07 05:33:20;;;;;;;7.73;3.90;;;12.20;99.90;;;;;;5035664;28;20470;-69
2021/10/07 05:35:46;;;;;;;6.50;4.60;;;12.10;99.90;;;;;;5055312;28;20315;-71
2021/10/07 05:38:12;;;;;;;3.53;2.77;;;12.10;99.90;;;;;;5038198;28;20592;-69
2021/10/07 05:40:37;;;;;;;3.83;3.30;;;12.10;99.90;;;;;;5037914;28;21012;-70
2021/10/07 05:43:03;;;;;;;3.50;3.10;;;12.10;99.90;;;;;;5036987;28;20446;-71
2021/10/07 05:45:29;;;;;;;5.17;4.00;;;12.10;99.90;;;;;;5038442;28;20226;-70
2021/10/07 05:47:54;;;;;;;7.50;3.30;;;12.10;99.90;;;;;;5072973;28;20683;-71
2021/10/07 05:50:20;;;;;;;6.37;3.70;;;12.10;99.90;;;;;;5056002;28;20302;-71
2021/10/07 05:52:45;;;;;;;5.30;3.43;;;12.10;99.90;;;;;;5055121;28;20225;-70
2021/10/07 05:55:11;;;;;;;4.17;2.80;;;12.10;99.90;;;;;;5039679;28;20227;-70
2021/10/07 05:57:37;;;;;;;4.37;2.97;;;12.20;99.90;;;;;;5019710;28;20212;-71
2021/10/07 06:00:07;;;;;;;2.90;2.60;;;12.20;99.90;;;;;;5065267;28;20296;-70
2021/10/07 06:02:37;;;;;;;6.50;3.53;;;12.20;99.90;;;;;;5067953;28;20223;-71
2021/10/07 06:05:08;;;;;;;3.50;2.73;;;12.20;99.90;;;;;;5056296;28;20461;-70
2021/10/07 06:07:34;;;;;;;4.30;3.13;;;12.20;99.90;;;;;;5036343;28;20453;-70
2021/10/07 06:10:00;;;;;;;3.47;2.70;;;12.20;99.90;;;;;;5041780;28;20442;-71
2021/10/07 06:12:26;;;;;;;4.10;3.27;;;12.10;99.90;;;;;;5045855;28;20777;-70
2021/10/07 06:14:51;;;;;;;3.83;3.43;;;12.10;99.90;;;;;;5025746;28;20306;-69
2021/10/07 06:17:17;;;;;;;7.50;4.20;;;12.20;99.90;;;;;;5069313;28;20344;-70
2021/10/07 06:19:46;;;;;;;4.27;3.87;;;12.10;99.90;;;;;;5052723;28;20600;-72
2021/10/07 06:22:13;;;;;;;6.83;3.57;;;12.10;99.90;;;;;;5029564;28;20307;-70
2021/10/07 06:24:39;;;;;;;6.10;3.70;;;12.10;99.90;;;;;;5031681;28;21057;-71
2021/10/07 06:27:05;;;;;;;3.87;3.50;;;12.10;99.90;;;;;;5035264;28;20553;-71
2021/10/07 06:29:31;;;;;;;6.37;4.37;;;12.10;99.90;;;;;;5021680;28;20696;-71
2021/10/07 06:31:57;;;;;;;3.90;3.20;;;12.10;99.90;;;;;;5064227;28;20558;-71
2021/10/07 06:34:22;;;;;;;4.23;3.13;;;12.10;99.90;;;;;;5047403;28;20239;-70
2021/10/07 06:36:48;;;;;;;12.77;7.57;;;12.10;99.90;;;;;;5079738;28;20219;-70
2021/10/07 06:39:14;;;;;;;18.97;12.60;;;12.10;99.90;;;;;;5035486;28;20231;-71
2021/10/07 06:41:40;;;;;;;22.40;15.00;;;12.10;99.90;;;;;;5033388;28;20227;-72
2021/10/07 06:44:07;;;;;;;23.77;15.50;;;12.10;99.90;;;;;;5035973;28;20306;-71
2021/10/07 06:46:32;;;;;;;20.27;13.60;;;12.10;99.90;;;;;;5030486;28;20514;-71
2021/10/07 06:48:59;;;;;;;10.20;8.20;;;12.10;99.90;;;;;;5052123;28;20227;-71
2021/10/07 06:51:26;;;;;;;6.57;5.80;;;12.20;99.90;;;;;;5062325;28;20281;-71
2021/10/07 06:53:54;;;;;;;7.47;5.20;;;12.10;99.90;;;;;;5032269;28;20524;-71
2021/10/07 06:56:22;;;;;;;14.60;6.60;;;12.10;99.90;;;;;;5047976;28;20470;-70
2021/10/07 06:58:55;;;;;;;7.77;5.67;;;12.20;99.90;;;;;;5043207;28;20473;-70
2021/10/07 07:01:22;;;;;;;8.07;5.40;;;12.20;99.90;;;;;;5034622;28;20537;-70
2021/10/07 07:03:49;;;;;;;5.23;4.43;;;12.20;99.90;;;;;;5033710;28;20462;-70
2021/10/07 07:06:16;;;;;;;5.70;4.60;;;12.20;99.90;;;;;;5033481;28;20470;-71
2021/10/07 07:08:42;;;;;;;6.10;4.10;;;12.20;99.90;;;;;;5037287;28;20488;-71
2021/10/07 07:11:08;;;;;;;5.37;4.43;;;12.20;99.90;;;;;;5024485;28;20466;-71
2021/10/07 07:13:33;;;;;;;5.40;4.20;;;12.20;99.90;;;;;;5014928;28;21022;-71
2021/10/07 07:15:59;;;;;;;5.47;4.47;;;12.20;99.90;;;;;;5048499;28;20656;-71
2021/10/07 07:18:24;;;;;;;6.30;3.63;;;12.20;99.90;;;;;;5050082;28;20794;-71
2021/10/07 07:20:50;;;;;;;3.80;3.40;;;12.20;99.90;;;;;;5050296;28;20215;-70
2021/10/07 07:23:16;;;;;;;4.13;3.53;;;12.30;99.90;;;;;;5036482;28;20231;-71
2021/10/07 07:25:42;;;;;;;4.47;4.00;;;12.30;99.90;;;;;;5028925;28;20222;-71
2021/10/07 07:28:08;;;;;;;4.57;3.60;;;12.30;99.90;;;;;;5035130;28;20238;-71
2021/10/07 07:30:34;;;;;;;5.70;4.13;;;12.30;99.90;;;;;;5030255;28;20467;-71
2021/10/07 07:33:00;;;;;;;5.10;4.27;;;12.30;99.90;;;;;;5050291;28;20223;-71
2021/10/07 07:35:29;;;;;;;3.60;3.30;;;12.40;99.90;;;;;;5046223;28;20476;-71
2021/10/07 07:37:57;;;;;;;3.27;2.97;;;12.40;99.90;;;;;;5030429;28;20445;-71
2021/10/07 07:40:22;;;;;;;3.53;3.23;;;12.40;99.90;;;;;;5046873;28;20967;-71
2021/10/07 07:42:48;;;;;;;5.00;3.97;;;12.40;99.90;;;;;;5031414;28;20532;-71
2021/10/07 07:45:14;;;;;;;6.53;3.90;;;12.40;99.90;;;;;;5037739;28;20231;-71
2021/10/07 07:47:41;;;;;;;4.77;3.97;;;12.40;99.90;;;;;;5048842;28;20238;-72
2021/10/07 07:50:09;;;;;;;3.67;3.33;;;12.40;99.90;;;;;;5037525;28;20702;-72
2021/10/07 07:52:35;;;;;;;11.27;5.80;;;12.40;99.90;;;;;;5067548;28;20576;-72
2021/10/07 07:55:01;;;;;;;7.17;5.47;;;12.50;99.90;;;;;;5067818;28;20524;-72
2021/10/07 07:57:26;;;;;;;5.43;4.33;;;12.50;99.90;;;;;;5048113;28;20461;-72
2021/10/07 07:59:52;;;;;;;7.00;4.60;;;12.50;99.90;;;;;;5026822;28;20212;-71
2021/10/07 08:02:18;;;;;;;6.10;4.93;;;12.50;99.90;;;;;;5044030;28;20276;-71
2021/10/07 08:04:45;;;;;;;6.43;5.17;;;12.50;99.90;;;;;;5048445;28;20248;-72
2021/10/07 08:07:10;;;;;;;6.90;4.50;;;12.50;99.90;;;;;;5029956;28;20298;-71
2021/10/07 08:09:38;;;;;;;5.50;4.23;;;12.50;99.90;;;;;;5033750;28;20524;-71
2021/10/07 08:12:05;;;;;;;4.63;4.13;;;12.60;99.90;;;;;;5049163;28;20356;-72
2021/10/07 08:14:31;;;;;;;6.07;4.50;;;12.60;99.90;;;;;;5032647;28;20465;-72
2021/10/07 08:16:58;;;;;;;5.70;4.80;;;12.60;99.90;;;;;;5068582;28;20461;-71
2021/10/07 08:19:24;;;;;;;6.40;4.50;;;12.60;99.90;;;;;;5048845;28;20230;-70
2021/10/07 08:21:50;;;;;;;6.70;4.50;;;12.60;99.90;;;;;;5029452;28;20455;-72
2021/10/07 08:24:22;;;;;;;4.97;4.47;;;12.60;99.90;;;;;;5048036;28;20809;-72
2021/10/07 08:26:48;;;;;;;4.60;4.20;;;12.70;99.90;;;;;;5036679;28;20850;-71
2021/10/07 08:29:13;;;;;;;5.50;4.00;;;12.60;99.90;;;;;;5026267;28;20462;-70
2021/10/07 08:31:39;;;;;;;4.90;3.47;;;12.70;99.90;;;;;;5047632;28;20219;-72
2021/10/07 08:34:05;;;;;;;4.47;3.70;;;12.70;99.90;;;;;;5026673;28;20228;-72
2021/10/07 08:36:32;;;;;;;4.13;3.73;;;12.80;99.90;;;;;;5045697;28;20302;-72
2021/10/07 08:38:59;;;;;;;4.60;3.93;;;12.70;99.90;;;;;;5033902;28;20310;-71
2021/10/07 08:41:24;;;;;;;4.90;3.53;;;12.80;99.90;;;;;;5041095;28;20458;-71
2021/10/07 08:43:51;;;;;;;8.90;4.43;;;12.80;99.90;;;;;;5049025;28;20445;-72
2021/10/07 08:46:18;;;;;;;4.50;4.07;;;12.80;99.90;;;;;;5057568;28;20489;-72
2021/10/07 08:48:44;;;;;;;5.43;3.90;;;12.90;99.90;;;;;;5054351;28;20469;-72
2021/10/07 08:51:10;;;;;;;3.50;3.13;;;12.90;99.90;;;;;;5059135;28;20469;-72
2021/10/07 08:53:36;;;;;;;4.57;3.30;;;13.00;99.90;;;;;;5048749;28;20306;-72
2021/10/07 08:56:05;;;;;;;4.93;3.50;;;13.00;99.90;;;;;;5046814;28;20254;-71
2021/10/07 08:58:31;;;;;;;5.63;3.57;;;13.00;99.90;;;;;;5028292;28;20481;-72
2021/10/07 09:00:56;;;;;;;3.33;3.03;;;13.00;99.90;;;;;;5033082;28;20477;-72
2021/10/07 09:03:23;;;;;;;4.23;2.90;;;13.10;99.90;;;;;;5048317;28;20215;-71
2021/10/07 09:05:48;;;;;;;2.97;2.70;;;13.10;99.90;;;;;;5044739;28;20215;-72
2021/10/07 09:08:16;;;;;;;3.27;2.97;;;13.10;99.90;;;;;;5067616;28;20519;-72
2021/10/07 09:10:55;;;;;;;4.63;3.13;;;13.20;99.90;;;;;;5049558;28;20223;-72
2021/10/07 09:13:25;;;;;;;3.53;3.23;;;13.20;99.90;;;;;;5065629;28;20460;-71
2021/10/07 09:15:54;;;;;;;3.70;3.23;;;13.20;99.90;;;;;;5059106;28;20443;-72
2021/10/07 09:18:21;;;;;;;3.93;3.63;;;13.30;99.90;;;;;;5030362;28;20446;-71
2021/10/07 09:20:49;;;;;;;4.23;3.83;;;13.30;99.90;;;;;;5013254;28;20466;-72
2021/10/07 09:23:20;;;;;;;7.17;3.83;;;13.30;99.90;;;;;;5033081;28;20492;-72
2021/10/07 09:26:11;;;;;;;5.80;3.77;;;13.30;99.90;;;;;;5053016;28;20473;-71
2021/10/07 09:28:58;;;;;;;6.10;4.20;;;13.40;99.90;;;;;;5036172;28;20682;-71
2021/10/07 09:31:42;;;;;;;4.10;3.70;;;13.40;99.90;;;;;;5032077;28;21008;-72
2021/10/07 09:34:08;;;;;;;3.97;3.17;;;13.40;99.90;;;;;;5050799;28;20480;-71
2021/10/07 09:36:34;;;;;;;5.30;3.50;;;13.40;99.90;;;;;;5034804;28;20515;-72
2021/10/07 09:39:02;;;;;;;5.37;3.97;;;13.40;99.90;;;;;;5029807;28;20333;-71
2021/10/07 09:41:30;;;;;;;5.40;3.67;;;13.50;99.90;;;;;;5040128;28;20211;-72
2021/10/07 09:44:10;;;;;;;5.83;4.17;;;13.50;99.90;;;;;;5042686;28;20458;-71
2021/10/07 09:46:47;;;;;;;4.30;3.90;;;13.50;99.90;;;;;;5016756;28;20519;-72
2021/10/07 09:49:20;;;;;;;4.53;4.10;;;13.50;99.90;;;;;;5017238;28;20458;-71
2021/10/07 09:51:45;;;;;;;4.80;3.40;;;13.60;99.90;;;;;;5037326;28;20500;-72
2021/10/07 09:54:16;;;;;;;7.53;3.93;;;13.60;99.90;;;;;;5035283;28;20477;-71
2021/10/07 09:56:58;;;;;;;5.60;4.03;;;13.60;99.90;;;;;;5069884;28;20227;-72
2021/10/07 09:59:25;;;;;;;4.00;3.70;;;13.60;99.90;;;;;;5034375;28;20492;-72
2021/10/07 10:01:52;;;;;;;4.93;3.10;;;13.70;99.90;;;;;;5034027;28;20445;-72
2021/10/07 10:04:19;;;;;;;2.90;2.70;;;13.70;99.90;;;;;;5070898;28;20993;-71
2021/10/07 10:06:44;;;;;;;5.87;3.50;;;13.70;99.90;;;;;;5031373;28;20469;-72
2021/10/07 10:09:10;;;;;;;3.30;3.00;;;13.70;99.90;;;;;;5032670;28;20505;-71
2021/10/07 10:11:36;;;;;;;5.03;3.30;;;13.80;99.90;;;;;;5028689;28;20626;-72
2021/10/07 10:14:02;;;;;;;4.37;3.57;;;13.80;99.90;;;;;;5030919;28;20251;-72
2021/10/07 10:16:29;;;;;;;5.37;3.80;;;13.80;99.90;;;;;;5020877;28;20577;-71
2021/10/07 10:19:00;;;;;;;3.40;3.10;;;13.80;99.90;;;;;;5032874;28;20649;-71
2021/10/07 10:21:31;;;;;;;3.93;3.50;;;13.80;99.90;;;;;;5050652;28;20453;-71
2021/10/07 10:23:59;;;;;;;4.37;3.50;;;13.80;99.90;;;;;;5055560;28;20450;-72
2021/10/07 10:26:25;;;;;;;4.47;3.43;;;13.90;99.90;;;;;;5048020;28;20545;-71
2021/10/07 10:28:54;;;;;;;7.03;4.70;;;13.90;99.90;;;;;;5039888;28;20485;-72
2021/10/07 10:31:43;;;;;;;4.17;3.77;;;13.90;99.90;;;;;;5046927;28;20470;-71
2021/10/07 10:34:11;;;;;;;4.20;3.80;;;13.90;99.90;;;;;;5044686;28;20456;-71
2021/10/07 10:36:47;;;;;;;4.47;3.80;;;14.00;99.90;;;;;;5033127;28;20871;-71
2021/10/07 10:39:36;;;;;;;5.10;4.20;;;14.00;99.90;;;;;;5030315;28;20539;-70
2021/10/07 10:42:06;;;;;;;5.07;3.40;;;14.00;99.90;;;;;;5040547;28;20493;-72
2021/10/07 10:44:37;;;;;;;4.73;4.27;;;14.00;99.90;;;;;;5040394;28;20469;-71
2021/10/07 10:47:06;;;;;;;6.77;3.37;;;14.00;99.90;;;;;;5043525;28;20473;-69
2021/10/07 10:49:53;;;;;;;4.80;4.00;;;14.00;99.90;;;;;;5027599;28;20519;-71
2021/10/07 10:52:45;;;;;;;3.40;3.10;;;14.10;99.90;;;;;;5050453;28;20470;-70
2021/10/07 10:55:13;;;;;;;5.00;3.27;;;14.10;99.90;;;;;;5054820;28;20461;-71
2021/10/07 10:57:51;;;;;;;2.97;2.63;;;14.10;99.90;;;;;;5047796;28;20461;-71
2021/10/07 11:00:21;;;;;;;3.80;3.43;;;14.10;99.90;;;;;;5065235;28;20465;-71
2021/10/07 11:02:53;;;;;;;5.20;3.43;;;14.20;99.90;;;;;;5026365;28;20454;-71
2021/10/07 11:05:24;;;;;;;3.17;2.93;;;14.20;99.90;;;;;;5049197;28;20464;-71
2021/10/07 11:08:08;;;;;;;4.37;3.20;;;14.20;99.90;;;;;;5032878;28;23034;-70
2021/10/07 11:10:57;;;;;;;4.60;3.47;;;14.20;99.90;;;;;;5032725;28;20480;-72
2021/10/07 11:13:29;;;;;;;4.50;3.10;;;14.20;99.90;;;;;;5029006;28;20973;-72
2021/10/07 11:16:03;;;;;;;3.63;3.10;;;14.20;99.90;;;;;;5028917;28;20550;-72
2021/10/07 11:18:33;;;;;;;3.87;3.20;;;14.20;99.90;;;;;;5029180;28;20537;-72
2021/10/07 11:21:02;;;;;;;4.00;3.30;;;14.20;99.90;;;;;;5035274;28;20454;-72
2021/10/07 11:23:32;;;;;;;4.00;3.60;;;14.20;99.90;;;;;;5035756;28;20832;-71
2021/10/07 11:25:59;;;;;;;4.37;3.60;;;14.30;99.90;;;;;;5032835;28;20469;-71
2021/10/07 11:28:31;;;;;;;4.27;3.87;;;14.30;99.90;;;;;;5030549;28;20552;-71
2021/10/07 11:31:11;;;;;;;3.70;3.30;;;14.30;99.90;;;;;;5043886;28;20457;-71
2021/10/07 11:33:51;;;;;;;4.57;3.13;;;14.40;99.90;;;;;;5047460;28;20590;-71
2021/10/07 11:36:20;;;;;;;3.53;3.23;;;14.40;99.90;;;;;;5050858;28;20462;-71
2021/10/07 11:38:48;;;;;;;5.47;4.00;;;14.40;99.90;;;;;;5045758;28;20465;-71
2021/10/07 11:41:16;;;;;;;3.80;3.40;;;14.40;99.90;;;;;;5044457;28;20466;-71
2021/10/07 11:43:43;;;;;;;4.00;3.47;;;14.40;99.90;;;;;;5025919;28;20457;-70
2021/10/07 11:46:12;;;;;;;6.60;3.63;;;14.50;99.90;;;;;;5037877;28;20473;-69
2021/10/07 11:48:47;;;;;;;4.50;3.73;;;14.50;99.90;;;;;;5037383;28;20454;-71
2021/10/07 11:51:20;;;;;;;3.93;3.50;;;14.60;99.90;;;;;;5027736;28;20470;-71
2021/10/07 11:53:50;;;;;;;6.23;4.60;;;14.60;99.90;;;;;;5032442;28;20863;-71
2021/10/07 11:56:24;;;;;;;5.40;3.83;;;14.70;99.90;;;;;;5047952;28;20550;-72
2021/10/07 11:59:02;;;;;;;4.73;3.17;;;14.70;99.90;;;;;;5051001;28;20533;-71
2021/10/07 12:01:33;;;;;;;3.10;2.80;;;14.80;99.90;;;;;;5029183;28;20461;-71
2021/10/07 12:04:01;;;;;;;4.83;3.80;;;14.80;99.90;;;;;;5045254;28;20990;-71
2021/10/07 12:06:29;;;;;;;3.70;3.27;;;14.90;99.90;;;;;;5039663;28;20457;-71
2021/10/07 12:08:55;;;;;;;3.80;3.40;;;14.90;99.90;;;;;;5047364;28;20463;-72
2021/10/07 12:11:23;;;;;;;4.30;3.30;;;15.00;99.90;;;;;;5064035;28;20469;-71
2021/10/07 12:13:54;;;;;;;4.13;3.43;;;15.00;99.90;;;;;;5062998;28;20303;-71
2021/10/07 12:16:39;;;;;;;4.70;3.60;;;15.20;99.90;;;;;;5047369;28;21157;-71
2021/10/07 12:19:07;;;;;;;4.70;3.40;;;15.30;99.90;;;;;;5048711;28;20496;-71
2021/10/07 12:21:38;;;;;;;5.83;3.23;;;15.30;99.90;;;;;;5026944;28;20466;-71
2021/10/07 12:24:06;;;;;;;5.23;3.50;;;15.30;99.90;;;;;;5026557;28;21006;-71
2021/10/07 12:26:35;;;;;;;9.60;3.60;;;15.30;99.90;;;;;;5017337;28;20462;-71
2021/10/07 12:29:11;;;;;;;3.70;3.10;;;15.30;99.90;;;;;;5032452;28;20461;-71
2021/10/07 12:31:37;;;;;;;3.13;2.80;;;15.20;99.90;;;;;;5046665;28;20474;-72
2021/10/07 12:34:09;;;;;;;3.13;2.60;;;15.20;99.90;;;;;;5030486;28;20883;-71
2021/10/07 12:36:53;;;;;;;3.13;2.77;;;15.20;99.90;;;;;;5033933;28;20235;-71
2021/10/07 12:39:25;;;;;;;5.60;3.07;;;15.20;99.90;;;;;;5045781;28;20449;-72
2021/10/07 12:41:59;;;;;;;2.77;2.57;;;15.10;99.90;;;;;;5028263;28;20511;-71
2021/10/07 12:44:31;;;;;;;3.83;2.93;;;15.20;99.90;;;;;;5046400;28;20449;-71
2021/10/07 12:46:59;;;;;;;2.83;2.63;;;15.20;99.90;;;;;;5056821;28;20555;-71
2021/10/07 12:49:41;;;;;;;3.17;2.90;;;15.30;99.90;;;;;;5047996;28;20462;-71
2021/10/07 12:52:19;;;;;;;3.60;2.93;;;15.40;99.90;;;;;;5064461;28;20470;-71
2021/10/07 12:54:58;;;;;;;3.93;2.97;;;15.50;99.90;;;;;;5030610;28;20460;-71